Terminal Aerodrome Forecast
Issued by NWS Shreveport, LA

Home | Current Version | Previous Version | Text Only | Print | Product List | Glossary On
Versions: 1 2 3 4 5 6 7 8 9 10 11 12 13
776
FTUS44 KSHV 201140
TAFTXK
TAF
KTXK 201140Z 2012/2112 18003KT P6SM SKC
     FM201500 VRB05KT P6SM SCT035
     FM201800 VRB05KT P6SM SCT050
     FM210300 VRB03KT P6SM FEW050 FEW250=

USA.gov is the U.S. government's official web portal to all federal, state and local government web resources and services.